Time;durP1;ratioP1;P1;durP2;ratioP2;P2;SDS_P1;SDS_P2;PMS_P1;PMS_P2;Temp;Humidity;BMP_temperature;BMP_pressure;BME280_temperature;BME280_humidity;BME280_pressure;Samples;Min_cycle;Max_cycle;Signal;HPM_P1;HPM_P2
2023/01/23 00:01:35;;;;;;;25.50;17.90;;;;;;;5.08;62.37;99954.25;7031871;28;20221;-82
2023/01/23 00:04:56;;;;;;;28.50;18.60;;;;;;;4.95;63.66;99976.94;7030740;28;20237;-81
2023/01/23 00:08:20;;;;;;;29.70;20.10;;;;;;;5.26;63.02;99915.13;7034130;28;20228;-82
2023/01/23 00:11:42;;;;;;;28.93;20.33;;;;;;;5.38;62.58;99980.84;7037658;28;20236;-82
2023/01/23 00:15:04;;;;;;;27.50;19.17;;;;;;;5.55;62.19;99955.16;7036902;28;20285;-82
2023/01/23 00:18:25;;;;;;;24.77;18.73;;;;;;;5.30;62.86;99972.66;7037417;28;20370;-82
2023/01/23 00:21:46;;;;;;;25.17;18.73;;;;;;;5.49;62.90;99977.97;7037431;28;20230;-82
2023/01/23 00:25:09;;;;;;;26.57;18.17;;;;;;;5.79;61.80;99975.06;7036380;28;20269;-82
2023/01/23 00:28:31;;;;;;;26.10;18.43;;;;;;;5.42;62.01;99928.72;7036429;28;20359;-82
2023/01/23 00:31:52;;;;;;;23.43;18.07;;;;;;;5.84;61.13;99974.69;7036662;28;20232;-82
2023/01/23 00:35:14;;;;;;;28.83;20.13;;;;;;;5.54;62.41;99978.38;7035702;28;20666;-82
2023/01/23 00:38:36;;;;;;;26.20;18.73;;;;;;;5.86;61.75;99964.66;7036276;28;20229;-82
2023/01/23 00:41:58;;;;;;;28.80;19.13;;;;;;;5.83;61.47;99979.16;7036164;28;20285;-82
2023/01/23 00:45:20;;;;;;;28.90;18.57;;;;;;;5.33;62.25;99977.75;7035430;28;20271;-82
2023/01/23 00:48:41;;;;;;;26.80;17.83;;;;;;;5.68;62.04;99966.38;7036188;28;20430;-82
2023/01/23 00:52:03;;;;;;;25.77;18.40;;;;;;;5.55;62.26;99979.25;7035881;28;20201;-82
2023/01/23 00:55:25;;;;;;;25.17;18.07;;;;;;;5.89;61.47;99975.09;7034809;28;20284;-82
2023/01/23 00:58:47;;;;;;;26.37;18.77;;;;;;;6.05;60.63;99973.44;7035882;28;20288;-82
2023/01/23 01:02:09;;;;;;;25.03;17.57;;;;;;;6.39;59.67;99982.56;7035218;28;20221;-82
2023/01/23 01:05:31;;;;;;;23.57;17.67;;;;;;;6.39;59.27;99979.91;7035348;28;20363;-82
2023/01/23 01:08:52;;;;;;;21.67;16.20;;;;;;;6.33;59.13;99988.53;7035296;28;20271;-82
2023/01/23 01:12:14;;;;;;;25.03;18.27;;;;;;;5.91;59.25;99991.81;7021979;28;20312;-82
2023/01/23 01:15:37;;;;;;;24.60;17.70;;;;;;;6.12;59.30;99973.69;7026752;28;20209;-82
2023/01/23 01:18:59;;;;;;;24.97;18.23;;;;;;;5.83;59.73;99971.13;7034902;28;20223;-82
2023/01/23 01:22:21;;;;;;;26.47;18.53;;;;;;;6.26;59.61;100008.84;7035216;28;20834;-82
2023/01/23 01:25:42;;;;;;;24.53;18.47;;;;;;;6.03;59.90;100009.38;7034340;28;20208;-81
2023/01/23 01:29:04;;;;;;;27.23;18.53;;;;;;;5.54;60.62;99961.50;7034863;28;20252;-82
2023/01/23 01:32:27;;;;;;;28.40;18.20;;;;;;;5.81;60.48;100017.78;7035205;28;20242;-82
2023/01/23 01:35:48;;;;;;;25.00;17.90;;;;;;;5.11;62.60;100018.16;7034195;28;20283;-82
2023/01/23 01:39:10;;;;;;;24.87;18.17;;;;;;;5.40;62.74;100007.41;7034626;28;20369;-82
2023/01/23 01:42:31;;;;;;;25.80;18.70;;;;;;;5.72;61.90;100008.75;7034911;28;20231;-82
2023/01/23 01:46:05;;;;;;;20.13;14.53;;;;;;;5.39;61.41;100011.94;7039583;28;20296;-82
2023/01/23 01:49:31;;;;;;;16.83;13.10;;;;;;;5.64;61.31;100016.66;7036394;28;20350;-82
2023/01/23 01:52:52;;;;;;;16.27;11.97;;;;;;;5.97;59.73;100026.03;7036189;28;20252;-82
2023/01/23 01:56:14;;;;;;;17.87;13.57;;;;;;;6.34;58.59;100024.16;7034732;28;20301;-82
2023/01/23 01:59:40;;;;;;;20.53;14.97;;;;;;;5.89;58.83;99983.94;7034784;28;20250;-82
2023/01/23 02:03:02;;;;;;;21.03;15.97;;;;;;;6.20;58.93;100008.59;7034872;28;20268;-82
2023/01/23 02:06:25;;;;;;;20.40;15.87;;;;;;;6.34;58.74;100017.00;7033429;28;20233;-82
2023/01/23 02:09:47;;;;;;;22.43;16.53;;;;;;;6.35;57.96;100026.72;7034358;28;20295;-82
2023/01/23 02:13:20;;;;;;;22.03;15.57;;;;;;;6.28;57.90;100014.91;7034307;28;20276;-82
2023/01/23 02:16:45;;;;;;;22.83;16.70;;;;;;;5.52;59.26;99980.38;7006130;28;20292;-82
2023/01/23 02:20:13;;;;;;;27.10;17.40;;;;;;;5.73;59.64;100026.47;7023531;28;20288;-82
2023/01/23 02:23:44;;;;;;;23.70;17.50;;;;;;;5.46;61.07;100007.69;7037065;28;20742;-82
2023/01/23 02:27:07;;;;;;;27.57;18.47;;;;;;;5.66;61.35;100009.31;7034358;28;20253;-82
2023/01/23 02:30:29;;;;;;;25.57;16.93;;;;;;;5.79;60.98;100022.41;7033711;28;20205;-82
2023/01/23 02:33:52;;;;;;;26.00;17.20;;;;;;;5.87;60.90;100012.69;7034349;28;20875;-82
2023/01/23 02:37:14;;;;;;;27.50;18.53;;;;;;;5.83;61.05;100011.28;7032992;28;20263;-82
2023/01/23 02:40:39;;;;;;;25.80;17.93;;;;;;;5.55;61.06;99974.72;7034112;28;20206;-81
2023/01/23 02:44:05;;;;;;;25.50;18.00;;;;;;;5.84;60.98;100021.00;7033672;28;20207;-82
2023/01/23 02:47:28;;;;;;;25.70;17.53;;;;;;;6.04;60.47;99992.31;7033540;28;20332;-82
2023/01/23 02:50:49;;;;;;;22.50;16.90;;;;;;;6.09;60.19;100011.47;7033707;28;20251;-82
2023/01/23 02:54:11;;;;;;;26.37;17.97;;;;;;;6.14;59.88;100019.91;7033269;28;20305;-82
2023/01/23 02:57:33;;;;;;;25.23;17.90;;;;;;;5.74;60.72;100017.50;7033649;28;20323;-82
2023/01/23 03:00:55;;;;;;;24.83;17.30;;;;;;;5.64;61.20;100013.13;7033941;28;20211;-82
2023/01/23 03:04:16;;;;;;;27.40;18.30;;;;;;;5.46;61.78;100006.84;7033634;28;20216;-82
2023/01/23 03:07:38;;;;;;;23.20;17.10;;;;;;;5.46;61.92;100010.38;7033086;28;20316;-82
2023/01/23 03:11:00;;;;;;;26.53;18.17;;;;;;;5.62;61.77;100021.31;7033522;28;20268;-82
2023/01/23 03:14:23;;;;;;;22.60;16.47;;;;;;;5.64;62.06;100023.84;7018686;28;20274;-82
2023/01/23 03:17:46;;;;;;;26.57;18.03;;;;;;;5.61;62.15;100027.63;7037564;28;20265;-81
2023/01/23 03:21:08;;;;;;;25.17;18.20;;;;;;;5.64;61.50;100005.97;7038787;28;20207;-82
2023/01/23 03:24:31;;;;;;;25.30;18.07;;;;;;;5.80;61.35;100014.28;7032631;28;20770;-82
2023/01/23 03:27:52;;;;;;;25.63;17.67;;;;;;;5.79;61.35;100004.50;7032384;28;20313;-82
2023/01/23 03:31:13;;;;;;;25.57;16.50;;;;;;;5.50;61.81;100008.25;7031808;28;20346;-82
2023/01/23 03:34:36;;;;;;;24.93;17.67;;;;;;;5.77;61.36;100000.31;7031513;28;20206;-82
2023/01/23 03:37:58;;;;;;;23.70;16.77;;;;;;;5.86;61.17;100012.81;7031689;28;20232;-82
2023/01/23 03:41:24;;;;;;;25.80;18.80;;;;;;;5.90;61.28;100012.38;7031239;28;20218;-82
2023/01/23 03:44:46;;;;;;;25.27;16.73;;;;;;;5.81;61.10;99999.03;7030874;28;20198;-83
2023/01/23 03:48:07;;;;;;;28.10;17.67;;;;;;;5.86;61.29;100015.50;7031157;28;20698;-82
2023/01/23 03:51:30;;;;;;;25.17;17.53;;;;;;;5.95;60.72;100017.31;7031431;28;20251;-82
2023/01/23 03:54:52;;;;;;;28.57;18.37;;;;;;;5.79;60.94;99983.09;7030724;28;20346;-82
2023/01/23 03:58:13;;;;;;;26.00;17.90;;;;;;;5.83;61.10;100007.78;7017364;28;20308;-82
2023/01/23 04:01:36;;;;;;;25.83;18.87;;;;;;;5.90;61.22;100017.72;7003518;28;20257;-81
2023/01/23 04:04:57;;;;;;;25.93;17.67;;;;;;;5.79;60.98;100020.56;7002352;28;20711;-83
2023/01/23 04:08:21;;;;;;;25.27;17.43;;;;;;;6.12;60.00;100027.22;7003343;28;20364;-82
2023/01/23 04:11:43;;;;;;;24.97;18.17;;;;;;;5.79;60.52;100036.59;7003002;28;20214;-82
2023/01/23 04:15:05;;;;;;;25.37;16.97;;;;;;;5.63;60.70;99977.53;7002635;28;20575;-83
2023/01/23 04:18:26;;;;;;;26.77;17.00;;;;;;;5.79;61.18;100038.47;7003210;28;20231;-82
2023/01/23 04:21:48;;;;;;;26.50;17.87;;;;;;;5.65;61.92;100031.72;7002968;28;20230;-82
2023/01/23 04:25:11;;;;;;;25.57;16.20;;;;;;;5.55;61.33;100040.78;7002444;28;20264;-82
2023/01/23 04:28:33;;;;;;;24.73;17.87;;;;;;;5.68;61.55;100039.47;7002760;28;20223;-82
2023/01/23 04:31:54;;;;;;;24.17;17.53;;;;;;;5.69;62.10;100054.53;7029602;28;20205;-82
2023/01/23 04:35:16;;;;;;;27.77;17.67;;;;;;;5.58;61.79;100025.28;7030109;28;20615;-82
2023/01/23 04:38:37;;;;;;;22.87;16.77;;;;;;;5.76;61.92;100050.28;7031034;28;20363;-82
2023/01/23 04:42:00;;;;;;;24.43;17.20;;;;;;;5.92;61.29;100049.72;7031005;28;20634;-82
2023/01/23 04:45:22;;;;;;;25.57;18.63;;;;;;;5.85;61.40;100046.75;7029999;28;20272;-82
2023/01/23 04:48:43;;;;;;;23.17;16.80;;;;;;;5.25;61.90;100047.13;7030050;28;20319;-83
2023/01/23 04:52:05;;;;;;;22.13;16.63;;;;;;;5.44;62.64;100054.28;7030780;28;20657;-82
2023/01/23 04:55:27;;;;;;;24.23;16.90;;;;;;;5.80;61.88;100050.88;7033537;28;20296;-82
2023/01/23 04:58:52;;;;;;;25.00;16.87;;;;;;;6.08;60.67;100055.31;7035412;28;20222;-82
2023/01/23 05:02:13;;;;;;;24.33;16.27;;;;;;;5.92;60.21;100022.94;7035850;28;20690;-82
2023/01/23 05:05:35;;;;;;;20.90;15.80;;;;;;;6.08;60.36;100056.13;7034833;28;20265;-82
2023/01/23 05:08:56;;;;;;;25.73;17.50;;;;;;;6.37;59.94;100054.19;7034841;28;20313;-82
2023/01/23 05:12:18;;;;;;;24.67;17.43;;;;;;;5.98;59.72;100062.50;7033272;28;20415;-83
2023/01/23 05:15:41;;;;;;;25.33;18.07;;;;;;;6.01;59.84;100065.75;7006684;28;20270;-83
2023/01/23 05:19:02;;;;;;;28.10;18.90;;;;;;;5.88;60.52;100054.50;7006883;28;20314;-82
2023/01/23 05:22:24;;;;;;;25.53;17.57;;;;;;;5.77;61.55;100048.47;7006613;28;20227;-82
2023/01/23 05:25:46;;;;;;;27.23;18.50;;;;;;;5.93;61.37;100059.44;7006080;28;20318;-82
2023/01/23 05:29:07;;;;;;;27.73;18.50;;;;;;;5.94;61.34;100051.25;7012866;28;20299;-82
2023/01/23 05:32:30;;;;;;;27.37;18.30;;;;;;;6.01;61.23;100067.59;7037946;28;20207;-82
2023/01/23 05:35:51;;;;;;;26.67;18.90;;;;;;;5.98;61.17;100055.34;7035762;28;20369;-82
2023/01/23 05:39:13;;;;;;;25.67;17.93;;;;;;;5.98;61.19;100065.19;7035098;28;20311;-82
2023/01/23 05:42:34;;;;;;;25.30;16.53;;;;;;;5.91;61.27;100072.97;7034405;28;20316;-82
2023/01/23 05:45:59;;;;;;;31.57;21.77;;;;;;;5.74;61.86;100062.97;7033370;28;20294;-82
2023/01/23 05:49:22;;;;;;;27.27;18.13;;;;;;;6.15;61.29;100061.75;7033875;28;20616;-82
2023/01/23 05:52:44;;;;;;;24.07;17.13;;;;;;;6.39;60.46;100068.28;7033479;28;20760;-82
2023/01/23 05:56:06;;;;;;;27.40;17.43;;;;;;;6.27;60.00;100079.31;7033006;28;20362;-83
2023/01/23 05:59:28;;;;;;;23.60;17.73;;;;;;;6.11;59.80;100079.94;7033382;28;20211;-82
2023/01/23 06:02:49;;;;;;;26.80;18.00;;;;;;;6.28;59.60;100081.88;7035042;28;20295;-82
2023/01/23 06:06:13;;;;;;;26.60;17.83;;;;;;;6.06;60.11;100082.22;7032540;28;20311;-83
2023/01/23 06:09:34;;;;;;;23.80;17.53;;;;;;;6.15;59.99;100061.75;7019357;28;20217;-81
2023/01/23 06:12:56;;;;;;;23.37;16.33;;;;;;;6.18;60.33;100086.41;7020997;28;20728;-81
2023/01/23 06:16:17;;;;;;;22.00;16.30;;;;;;;6.34;59.78;100075.91;7028565;28;20322;-81
2023/01/23 06:19:39;;;;;;;26.17;19.03;;;;;;;6.04;60.49;100092.25;7032500;28;20233;-81
2023/01/23 06:23:01;;;;;;;25.60;17.27;;;;;;;6.48;59.60;100091.50;7046782;28;20334;-82
2023/01/23 06:26:23;;;;;;;21.83;15.83;;;;;;;6.41;59.25;100098.44;7049559;28;20313;-81
2023/01/23 06:29:45;;;;;;;24.40;16.80;;;;;;;6.27;58.51;100106.09;7041822;28;20233;-81
2023/01/23 06:33:06;;;;;;;26.73;17.87;;;;;;;5.94;59.80;100095.91;7036979;28;20279;-81
2023/01/23 06:36:27;;;;;;;26.70;17.13;;;;;;;6.14;59.54;100097.56;7032924;28;20364;-81
2023/01/23 06:39:50;;;;;;;24.27;17.43;;;;;;;5.90;59.77;100044.50;7033335;28;20202;-81
2023/01/23 06:43:12;;;;;;;27.97;18.43;;;;;;;5.86;59.79;100122.56;7032097;28;20312;-82
2023/01/23 06:46:33;;;;;;;28.07;18.70;;;;;;;6.21;59.41;100131.66;7031682;28;20439;-81
2023/01/23 06:49:55;;;;;;;27.67;18.90;;;;;;;5.85;60.27;100145.78;7032117;28;20346;-81
2023/01/23 06:53:17;;;;;;;29.77;21.10;;;;;;;5.77;60.57;100134.94;7033968;28;20418;-82
2023/01/23 06:56:40;;;;;;;25.97;18.50;;;;;;;6.02;60.61;100141.56;7032123;28;20219;-81
2023/01/23 07:00:02;;;;;;;27.43;19.03;;;;;;;5.96;60.49;100104.66;7033321;28;20350;-83
2023/01/23 07:03:23;;;;;;;26.83;18.27;;;;;;;6.26;59.91;100150.78;7033151;28;20307;-82
2023/01/23 07:06:45;;;;;;;28.70;18.23;;;;;;;5.96;59.17;100107.34;7033233;28;20298;-81
2023/01/23 07:10:08;;;;;;;27.13;18.57;;;;;;;6.38;59.19;100152.28;7033477;28;20315;-82
2023/01/23 07:13:30;;;;;;;28.63;18.00;;;;;;;6.56;58.26;100144.34;7026278;28;20211;-82
2023/01/23 07:16:53;;;;;;;22.27;16.77;;;;;;;6.02;58.58;100120.13;7007670;28;20317;-81
2023/01/23 07:20:15;;;;;;;28.37;19.73;;;;;;;6.24;59.29;100163.47;7019648;28;20286;-82
2023/01/23 07:23:37;;;;;;;24.93;17.43;;;;;;;6.13;58.99;100158.28;7019032;28;20249;-82
2023/01/23 07:26:58;;;;;;;27.33;17.83;;;;;;;6.08;59.73;100157.03;7003154;28;20647;-81
2023/01/23 07:30:21;;;;;;;27.27;18.13;;;;;;;6.11;59.98;100162.09;7003934;28;20332;-82
2023/01/23 07:33:43;;;;;;;24.63;16.60;;;;;;;6.37;59.03;100160.50;7003416;28;20219;-81
2023/01/23 07:37:04;;;;;;;24.97;17.00;;;;;;;6.44;58.70;100173.16;7003019;28;20291;-81
2023/01/23 07:40:26;;;;;;;25.27;16.57;;;;;;;6.50;58.00;100174.41;7004777;28;20461;-81
2023/01/23 07:43:48;;;;;;;20.73;15.20;;;;;;;6.38;58.35;100172.91;7004154;28;20306;-82
2023/01/23 07:47:10;;;;;;;29.77;20.03;;;;;;;5.74;58.46;100135.22;7003837;28;20249;-82
2023/01/23 07:50:32;;;;;;;29.77;18.93;;;;;;;5.97;58.80;100136.63;7017506;28;20264;-81
2023/01/23 07:53:53;;;;;;;25.80;18.23;;;;;;;5.89;58.91;100163.25;7031989;28;20296;-81
2023/01/23 07:57:15;;;;;;;29.43;19.43;;;;;;;5.71;59.74;100167.59;7030052;28;20262;-81
2023/01/23 08:00:37;;;;;;;32.47;20.37;;;;;;;5.38;60.61;100132.41;7021242;28;20257;-82
2023/01/23 08:03:59;;;;;;;32.30;21.30;;;;;;;5.75;61.07;100162.81;7012086;28;20300;-82
2023/01/23 08:07:22;;;;;;;34.90;21.30;;;;;;;5.76;60.71;100149.31;7032537;28;20314;-81
2023/01/23 08:10:44;;;;;;;32.13;21.53;;;;;;;6.19;59.51;100135.47;7022005;28;20201;-81
2023/01/23 08:14:05;;;;;;;34.43;23.13;;;;;;;6.00;59.67;100167.59;7005920;28;20206;-82
2023/01/23 08:17:27;;;;;;;33.70;22.63;;;;;;;6.02;60.14;100168.31;7005860;28;20308;-82
2023/01/23 08:20:54;;;;;;;30.37;20.20;;;;;;;5.76;60.63;100159.16;7017797;28;20291;-81
2023/01/23 08:24:15;;;;;;;35.40;22.53;;;;;;;5.33;60.68;100043.75;7026194;28;20270;-81
2023/01/23 08:27:37;;;;;;;35.23;21.60;;;;;;;5.94;60.20;100154.78;7017264;28;20259;-81
2023/01/23 08:31:00;;;;;;;31.73;20.17;;;;;;;5.61;60.80;100145.34;7011241;28;20227;-81
2023/01/23 08:34:22;;;;;;;36.47;21.67;;;;;;;6.00;60.73;100156.91;7011525;28;20205;-81
2023/01/23 08:37:45;;;;;;;24.73;19.13;;;;;;;6.46;59.80;100163.13;7013996;28;20229;-81
2023/01/23 08:41:08;;;;;;;31.13;20.60;;;;;;;6.46;59.62;100163.13;7015146;28;20207;-81
2023/01/23 08:44:33;;;;;;;28.93;20.00;;;;;;;6.69;58.40;100123.41;7015930;28;20361;-81
2023/01/23 08:47:54;;;;;;;28.47;18.47;;;;;;;6.14;58.08;100070.78;7040559;28;20256;-81
2023/01/23 08:51:16;;;;;;;27.50;17.43;;;;;;;6.89;58.28;100154.50;7040710;28;20202;-81
2023/01/23 08:54:38;;;;;;;32.93;21.13;;;;;;;6.95;56.42;100117.19;7038480;28;20229;-77
2023/01/23 08:58:00;;;;;;;19.10;13.77;;;;;;;6.94;54.72;100160.22;7042002;28;20253;-81
2023/01/23 09:01:23;;;;;;;18.37;12.00;;;;;;;5.95;55.77;100159.19;7044328;28;20298;-81
2023/01/23 09:04:45;;;;;;;16.30;11.37;;;;;;;6.59;54.14;100117.25;7040507;28;20769;-80
2023/01/23 09:08:06;;;;;;;17.10;12.40;;;;;;;7.37;50.36;100163.91;7041222;28;20245;-80
2023/01/23 09:11:29;;;;;;;13.40;10.30;;;;;;;6.52;51.79;100092.88;7038429;28;20279;-81
2023/01/23 09:14:51;;;;;;;14.83;10.43;;;;;;;7.02;51.84;100155.81;7038869;28;20201;-80
2023/01/23 09:18:12;;;;;;;13.60;10.43;;;;;;;7.47;51.41;100156.66;7025105;28;20289;-81
2023/01/23 09:21:34;;;;;;;14.93;9.97;;;;;;;7.14;51.17;100170.69;7032138;28;20281;-81
2023/01/23 09:24:55;;;;;;;11.77;9.77;;;;;;;7.32;50.79;100171.56;7038569;28;20721;-80
2023/01/23 09:28:18;;;;;;;15.00;10.87;;;;;;;5.84;52.82;100087.06;7039684;28;20307;-80
2023/01/23 09:31:40;;;;;;;15.50;10.13;;;;;;;5.56;54.02;100154.81;7039661;28;20307;-81
2023/01/23 09:35:01;;;;;;;12.70;10.00;;;;;;;5.66;54.45;100177.88;7032296;28;20209;-80
2023/01/23 09:38:23;;;;;;;12.00;8.80;;;;;;;5.19;53.63;100138.56;7039495;28;20252;-80
2023/01/23 09:41:44;;;;;;;12.87;9.57;;;;;;;5.18;55.05;100189.53;7038144;28;20816;-80
2023/01/23 09:45:12;;;;;;;12.30;9.57;;;;;;;6.44;52.74;100177.66;7037999;28;20303;-80
2023/01/23 09:48:39;;;;;;;13.83;9.87;;;;;;;6.56;51.25;100120.22;7039888;28;20316;-80
2023/01/23 09:52:04;;;;;;;13.03;9.30;;;;;;;6.73;51.94;100173.03;7032685;28;20268;-80
2023/01/23 09:55:33;;;;;;;15.87;10.17;;;;;;;6.98;50.92;100188.44;7033163;28;20198;-80
2023/01/23 09:59:02;;;;;;;13.67;9.17;;;;;;;7.07;49.89;100182.19;7029345;28;20722;-80
2023/01/23 10:02:25;;;;;;;13.43;9.40;;;;;;;6.90;49.87;100181.13;7030511;28;20700;-80
2023/01/23 10:05:54;;;;;;;13.07;9.50;;;;;;;6.91;50.36;100185.53;7027649;28;20242;-80
2023/01/23 10:09:25;;;;;;;12.67;9.17;;;;;;;6.05;52.05;100173.38;7039463;28;20225;-80
2023/01/23 10:12:54;;;;;;;13.10;9.93;;;;;;;6.96;51.39;100174.34;7010115;28;20726;-80
2023/01/23 10:16:40;;;;;;;13.57;10.07;;;;;;;7.16;50.77;100138.38;7012208;28;20229;-81
2023/01/23 10:20:24;;;;;;;15.63;9.57;;;;;;;7.75;49.31;100157.41;7012709;28;20267;-80
2023/01/23 10:23:50;;;;;;;12.97;9.57;;;;;;;6.91;51.92;100150.69;7011794;28;20232;-80
2023/01/23 10:27:18;;;;;;;13.97;10.20;;;;;;;7.19;51.15;100162.22;7014460;28;20236;-79
2023/01/23 10:30:41;;;;;;;17.87;11.27;;;;;;;7.44;51.56;100173.06;7025686;28;20198;-81
2023/01/23 10:34:08;;;;;;;15.83;11.07;;;;;;;8.00;51.20;100170.88;7039993;28;20209;-85
2023/01/23 10:37:40;;;;;;;17.50;11.17;;;;;;;8.50;50.41;100163.91;7039974;28;20223;-82
2023/01/23 10:44:37;;;;;;;81.67;43.53;;;;;;;7.76;50.89;100157.25;7023858;28;20265;-79
2023/01/23 10:47:58;;;;;;;15.23;10.90;;;;;;;8.15;50.73;100155.06;7033599;28;20373;-84
2023/01/23 10:51:35;;;;;;;16.90;11.00;;;;;;;7.29;51.00;100083.38;7031721;28;20340;-83
2023/01/23 10:54:58;;;;;;;14.37;11.03;;;;;;;7.21;50.14;100104.75;7032164;28;20746;-83
2023/01/23 10:58:28;;;;;;;12.47;9.40;;;;;;;6.30;53.12;100151.34;7031057;28;20221;-82
2023/01/23 11:01:58;;;;;;;14.47;10.27;;;;;;;6.32;53.65;100152.88;7030517;28;20201;-84
2023/01/23 11:05:36;;;;;;;13.73;10.50;;;;;;;6.29;53.27;100141.59;7032674;28;20230;-82
2023/01/23 11:09:00;;;;;;;15.03;10.50;;;;;;;7.18;52.27;100129.19;7032187;28;20307;-84
2023/01/23 11:12:25;;;;;;;16.23;11.03;;;;;;;7.96;50.63;100118.47;7032546;28;20212;-83
2023/01/23 11:15:48;;;;;;;14.97;10.63;;;;;;;7.89;50.16;100130.84;7027932;28;20259;-84
2023/01/23 11:19:18;;;;;;;15.53;11.37;;;;;;;7.96;49.88;100120.34;7032248;28;20268;-83
2023/01/23 11:22:41;;;;;;;14.77;10.70;;;;;;;7.34;51.28;100090.94;7032539;28;20830;-81
2023/01/23 11:26:03;;;;;;;17.50;11.63;;;;;;;7.45;50.63;100134.50;7032224;28;20827;-82
2023/01/23 11:29:27;;;;;;;14.13;10.00;;;;;;;7.16;51.31;100112.41;7032123;28;20218;-82
2023/01/23 11:32:55;;;;;;;13.83;10.30;;;;;;;6.79;51.89;100108.94;7029812;28;20289;-81
2023/01/23 11:36:30;;;;;;;13.60;10.03;;;;;;;7.24;52.46;100093.69;7031890;28;20284;-82
2023/01/23 11:39:57;;;;;;;15.40;10.70;;;;;;;6.96;51.98;100115.38;7031888;28;20199;-81
2023/01/23 11:43:18;;;;;;;16.87;11.00;;;;;;;6.73;52.84;100117.59;7034552;28;20193;-82
2023/01/23 11:46:53;;;;;;;14.47;10.17;;;;;;;6.85;52.94;100112.88;7031213;28;20363;-80
2023/01/23 11:50:27;;;;;;;15.80;11.30;;;;;;;7.31;52.50;100110.88;7022072;28;20218;-83
2023/01/23 11:53:56;;;;;;;20.83;13.73;;;;;;;7.41;51.39;100116.16;7018661;28;20290;-82
2023/01/23 11:57:23;;;;;;;15.90;11.70;;;;;;;7.96;51.05;100101.53;7009475;28;20241;-82
2023/01/23 12:00:46;;;;;;;14.60;11.30;;;;;;;7.64;51.78;100109.31;7027775;28;20292;-82
2023/01/23 12:04:26;;;;;;;18.73;12.53;;;;;;;7.54;51.33;100111.28;7012932;28;20225;-81
2023/01/23 12:07:56;;;;;;;16.53;12.13;;;;;;;7.74;51.89;100099.34;7016660;28;20222;-82
2023/01/23 12:11:21;;;;;;;19.07;12.03;;;;;;;7.30;52.07;100095.78;7023310;28;20214;-81
2023/01/23 12:14:47;;;;;;;14.67;10.97;;;;;;;7.78;51.54;100088.13;7022586;28;20197;-81
2023/01/23 12:18:22;;;;;;;14.30;10.77;;;;;;;7.24;52.48;100080.28;7018530;28;20263;-82
2023/01/23 12:21:52;;;;;;;14.33;10.23;;;;;;;7.48;51.11;100077.00;7030080;28;20238;-82
2023/01/23 12:25:22;;;;;;;13.60;10.50;;;;;;;7.93;51.41;100067.78;7006210;28;20215;-82
2023/01/23 12:29:11;;;;;;;15.13;10.80;;;;;;;8.08;50.49;100063.50;7012708;28;20234;-81
2023/01/23 12:32:44;;;;;;;15.90;10.53;;;;;;;7.82;50.88;100061.81;7028917;28;20202;-81
2023/01/23 12:36:18;;;;;;;13.87;9.77;;;;;;;7.56;51.77;100052.91;7032092;28;20268;-82
2023/01/23 12:39:52;;;;;;;14.10;10.13;;;;;;;6.72;53.10;100022.09;7032499;28;20195;-80
2023/01/23 12:43:17;;;;;;;13.20;9.10;;;;;;;6.96;52.93;100022.34;7022794;28;20359;-81
2023/01/23 12:46:43;;;;;;;12.97;9.73;;;;;;;7.61;52.22;100038.00;7031394;28;20379;-81
2023/01/23 12:50:11;;;;;;;15.03;10.83;;;;;;;8.10;50.79;100031.13;7031227;28;20679;-81
2023/01/23 12:53:36;;;;;;;17.13;11.00;;;;;;;7.63;52.21;100035.19;7032578;28;20186;-82
2023/01/23 12:56:59;;;;;;;13.90;9.93;;;;;;;8.18;50.68;100006.97;7031387;28;20230;-82
2023/01/23 13:00:38;;;;;;;12.93;9.67;;;;;;;7.64;51.81;100007.34;7031535;28;20300;-81
2023/01/23 13:04:10;;;;;;;12.63;9.40;;;;;;;7.74;51.33;100019.66;7031164;28;20240;-82
2023/01/23 13:07:42;;;;;;;12.80;8.80;;;;;;;8.05;51.38;100023.53;7031581;28;20242;-81
2023/01/23 13:14:48;;;;;;;12.33;9.57;;;;;;;7.74;51.28;100025.03;7008120;28;20618;-81
2023/01/23 13:18:22;;;;;;;11.53;8.57;;;;;;;7.26;51.54;100026.50;7010363;28;20233;-81
2023/01/23 13:22:01;;;;;;;14.07;9.67;;;;;;;7.73;52.21;100020.66;7010105;28;20209;-81
2023/01/23 13:25:23;;;;;;;13.07;8.70;;;;;;;8.13;50.41;100012.00;7008420;28;20225;-81
2023/01/23 13:28:46;;;;;;;18.17;9.37;;;;;;;8.01;50.99;100007.91;7008298;28;20294;-81
2023/01/23 13:32:22;;;;;;;12.37;8.93;;;;;;;8.12;51.50;99997.72;7008524;28;20362;-82
2023/01/23 13:35:53;;;;;;;12.53;9.57;;;;;;;8.55;50.19;100012.88;7007844;28;20211;-81
2023/01/23 13:39:25;;;;;;;15.30;10.47;;;;;;;8.70;50.42;100005.84;7011292;28;20716;-81
2023/01/23 13:42:47;;;;;;;12.90;9.53;;;;;;;7.37;52.14;100013.66;7006864;28;20614;-81
2023/01/23 13:46:11;;;;;;;13.17;9.60;;;;;;;7.04;53.61;99986.75;7006775;28;20239;-81
2023/01/23 13:49:50;;;;;;;12.90;9.63;;;;;;;8.29;52.03;99995.97;7030652;28;20252;-81
2023/01/23 13:56:57;;;;;;;11.97;8.60;;;;;;;8.60;50.72;100013.25;7008081;28;20225;-81
2023/01/23 14:00:20;;;;;;;14.13;8.87;;;;;;;8.47;51.00;100002.09;7033474;28;20220;-82
2023/01/23 14:07:43;;;;;;;14.17;10.50;;;;;;;9.07;50.47;100023.25;7029762;28;20588;-82
2023/01/23 14:11:13;;;;;;;13.50;8.97;;;;;;;9.15;49.65;100026.78;7033313;28;20195;-82
2023/01/23 14:18:28;;;;;;;11.63;8.90;;;;;;;8.96;49.82;100026.25;7035852;28;20221;-82
2023/01/23 14:21:53;;;;;;;9.93;7.97;;;;;;;8.88;48.70;100002.06;7032069;28;20215;-83
2023/01/23 14:25:17;;;;;;;12.77;8.20;;;;;;;8.27;51.09;100004.22;7032483;28;20211;-81
2023/01/23 14:28:39;;;;;;;11.30;8.37;;;;;;;8.07;50.93;99926.72;7034492;28;20234;-82
2023/01/23 14:32:01;;;;;;;12.00;8.50;;;;;;;8.32;51.09;100015.31;7035961;28;20287;-81
2023/01/23 14:35:25;;;;;;;10.30;8.50;;;;;;;8.25;51.18;100010.75;7043647;28;20198;-82
2023/01/23 14:38:48;;;;;;;14.83;9.50;;;;;;;8.10;52.39;100018.53;7042446;28;20231;-82
2023/01/23 14:42:22;;;;;;;11.13;8.70;;;;;;;7.27;53.78;100007.56;7041532;28;20204;-81
2023/01/23 14:45:47;;;;;;;11.53;8.87;;;;;;;7.16;54.65;100018.53;7036153;28;20706;-81
2023/01/23 14:49:12;;;;;;;14.17;10.27;;;;;;;8.16;53.03;100012.53;7034366;28;20231;-81
2023/01/23 14:52:34;;;;;;;12.90;9.60;;;;;;;7.83;52.55;99996.41;7033891;28;20202;-81
2023/01/23 14:55:58;;;;;;;12.73;9.83;;;;;;;8.01;53.18;100016.81;7033054;28;20297;-81
2023/01/23 14:59:25;;;;;;;10.60;9.07;;;;;;;7.95;52.52;100013.94;7033451;28;20212;-82
2023/01/23 15:02:49;;;;;;;12.57;8.97;;;;;;;6.90;55.58;100006.88;7036207;28;20353;-81
2023/01/23 15:06:16;;;;;;;13.47;9.87;;;;;;;7.85;53.44;100014.00;7034678;28;20654;-82
2023/01/23 15:09:40;;;;;;;13.07;9.70;;;;;;;7.37;53.84;100024.41;7034674;28;20321;-82
2023/01/23 15:13:03;;;;;;;14.57;10.97;;;;;;;7.11;55.09;100022.66;7032750;28;20222;-82
2023/01/23 15:16:30;;;;;;;13.73;10.43;;;;;;;7.47;54.17;100006.38;7033321;28;20217;-81
2023/01/23 15:19:54;;;;;;;13.47;9.63;;;;;;;7.42;55.00;100005.19;7033108;28;20719;-81
2023/01/23 15:23:30;;;;;;;15.73;11.13;;;;;;;7.26;54.66;99986.25;7032607;28;20754;-81
2023/01/23 15:27:19;;;;;;;14.80;10.27;;;;;;;7.81;53.66;100025.22;7031956;28;20261;-81
2023/01/23 15:30:45;;;;;;;14.43;10.03;;;;;;;7.37;53.31;99956.50;7032821;28;20182;-81
2023/01/23 15:34:19;;;;;;;12.07;10.37;;;;;;;8.11;52.14;99971.88;7031843;28;20190;-81
2023/01/23 15:37:46;;;;;;;15.13;10.60;;;;;;;8.04;51.96;99970.84;7031292;28;20309;-82
2023/01/23 15:41:09;;;;;;;15.97;10.83;;;;;;;7.56;52.89;99962.50;7032525;28;20190;-82
2023/01/23 15:44:32;;;;;;;13.80;10.53;;;;;;;7.90;52.96;100014.38;7030031;28;20399;-81
2023/01/23 15:47:53;;;;;;;15.83;11.53;;;;;;;7.65;53.47;99993.75;7031681;28;20397;-81
2023/01/23 15:51:16;;;;;;;16.07;11.17;;;;;;;8.03;53.08;100014.81;7032014;28;20207;-82
2023/01/23 15:54:39;;;;;;;13.30;10.40;;;;;;;7.86;52.87;100022.91;7031359;28;20608;-81
2023/01/23 15:58:00;;;;;;;13.63;10.60;;;;;;;7.76;53.35;100017.66;7031989;28;20269;-82
2023/01/23 16:01:22;;;;;;;13.00;10.13;;;;;;;7.75;53.07;100013.28;7031823;28;20369;-81